Time;durP1;ratioP1;P1;durP2;ratioP2;P2;SDS_P1;SDS_P2;PMS_P1;PMS_P2;Temp;Humidity;BMP_temperature;BMP_pressure;BME280_temperature;BME280_humidity;BME280_pressure;Samples;Min_cycle;Max_cycle;Signal;HPM_P1;HPM_P2
2021/05/20 00:01:04;;;;;;;1.88;0.60;;;9.90;92.60;;;;;;5047088;28;20120;-70
2021/05/20 00:03:30;;;;;;;1.25;0.50;;;9.80;92.70;;;;;;5048646;28;20032;-69
2021/05/20 00:05:55;;;;;;;1.33;0.60;;;9.90;92.70;;;;;;5034563;28;20036;-69
2021/05/20 00:08:22;;;;;;;1.05;0.50;;;9.80;92.70;;;;;;5050201;28;20045;-69
2021/05/20 00:10:47;;;;;;;1.27;0.60;;;9.90;92.90;;;;;;5048943;28;20496;-69
2021/05/20 00:13:13;;;;;;;1.38;0.70;;;9.90;93.10;;;;;;5034284;28;20037;-69
2021/05/20 00:15:39;;;;;;;1.17;0.55;;;9.90;93.00;;;;;;5032832;28;20036;-68
2021/05/20 00:18:05;;;;;;;0.82;0.52;;;9.90;92.90;;;;;;5050353;28;20093;-70
2021/05/20 00:20:31;;;;;;;2.45;0.50;;;9.90;92.90;;;;;;5041675;28;20489;-70
2021/05/20 00:22:57;;;;;;;1.58;0.60;;;9.90;93.00;;;;;;5045679;28;20029;-69
2021/05/20 00:25:23;;;;;;;1.38;0.43;;;10.00;93.00;;;;;;5013021;28;20022;-69
2021/05/20 00:27:48;;;;;;;2.35;0.60;;;10.00;93.20;;;;;;5043081;28;20486;-68
2021/05/20 00:30:15;;;;;;;1.77;0.70;;;10.00;93.40;;;;;;5046525;28;20033;-69
2021/05/20 00:32:41;;;;;;;1.80;1.17;;;10.00;93.50;;;;;;5037751;28;20028;-69
2021/05/20 00:35:07;;;;;;;1.13;0.70;;;10.00;93.60;;;;;;5045437;28;20033;-70
2021/05/20 00:37:33;;;;;;;2.38;0.40;;;10.00;94.00;;;;;;5050238;28;20029;-69
2021/05/20 00:39:59;;;;;;;1.83;1.00;;;10.00;93.90;;;;;;5034492;28;20035;-68
2021/05/20 00:42:24;;;;;;;2.25;0.70;;;10.00;94.10;;;;;;5034864;28;20494;-69
2021/05/20 00:44:54;;;;;;;1.27;0.60;;;10.00;94.00;;;;;;5043078;28;20120;-68
2021/05/20 00:47:21;;;;;;;1.90;0.90;;;9.90;94.20;;;;;;5049617;28;20029;-69
2021/05/20 00:49:49;;;;;;;5.63;0.80;;;9.90;94.50;;;;;;5040036;28;20060;-69
2021/05/20 00:52:15;;;;;;;1.33;0.73;;;9.90;94.80;;;;;;5032137;28;20437;-69
2021/05/20 00:54:41;;;;;;;1.10;0.70;;;9.80;95.10;;;;;;5038209;28;20038;-70
2021/05/20 00:57:09;;;;;;;2.85;0.70;;;9.80;95.10;;;;;;5031868;28;20049;-71
2021/05/20 00:59:35;;;;;;;1.38;0.60;;;9.70;95.30;;;;;;5039797;28;20079;-70
2021/05/20 01:02:01;;;;;;;5.03;0.70;;;9.70;95.40;;;;;;5041312;28;20037;-70
2021/05/20 01:04:27;;;;;;;1.95;0.50;;;9.70;95.70;;;;;;5024089;28;20030;-69
2021/05/20 01:06:53;;;;;;;0.77;0.77;;;9.70;95.50;;;;;;5040099;28;20029;-70
2021/05/20 01:09:19;;;;;;;0.88;0.52;;;9.70;95.40;;;;;;5045165;28;20116;-70
2021/05/20 01:11:45;;;;;;;1.38;0.50;;;9.80;94.90;;;;;;5031104;28;20446;-70
2021/05/20 01:14:11;;;;;;;2.67;0.70;;;9.80;94.70;;;;;;5036014;28;20506;-69
2021/05/20 01:16:40;;;;;;;1.42;0.43;;;9.80;94.50;;;;;;5050069;28;20463;-70
2021/05/20 01:19:06;;;;;;;1.42;0.70;;;9.80;93.90;;;;;;5047385;28;20390;-71
2021/05/20 01:21:34;;;;;;;1.70;0.75;;;9.80;94.00;;;;;;5030683;28;20034;-70
2021/05/20 01:24:00;;;;;;;3.35;0.60;;;9.80;94.40;;;;;;5040166;28;20774;-70
2021/05/20 01:26:26;;;;;;;0.50;0.40;;;9.80;94.40;;;;;;5053927;28;20029;-70
2021/05/20 01:28:52;;;;;;;1.38;0.60;;;9.70;94.60;;;;;;5053506;28;20079;-69
2021/05/20 01:31:18;;;;;;;1.10;0.47;;;9.70;94.60;;;;;;5040818;28;20083;-70
2021/05/20 01:33:43;;;;;;;1.20;0.60;;;9.70;94.60;;;;;;5043582;28;20021;-70
2021/05/20 01:36:09;;;;;;;1.27;0.77;;;9.60;94.70;;;;;;5041766;28;20198;-71
2021/05/20 01:41:08;;;;;;;1.67;0.80;;;9.60;94.80;;;;;;5034806;28;20113;-69
2021/05/20 01:43:35;;;;;;;0.63;0.60;;;9.60;95.10;;;;;;5034074;28;20025;-70
2021/05/20 01:46:01;;;;;;;1.75;0.70;;;9.50;95.30;;;;;;5046901;28;20115;-69
2021/05/20 01:48:28;;;;;;;2.70;0.70;;;9.50;95.90;;;;;;5051293;28;20096;-69
2021/05/20 01:51:04;;;;;;;1.10;0.52;;;9.40;96.70;;;;;;5038403;28;20528;-69
2021/05/20 01:53:30;;;;;;;0.70;0.50;;;9.40;97.20;;;;;;5038772;28;20021;-69
2021/05/20 01:55:56;;;;;;;1.00;0.70;;;9.30;98.20;;;;;;5035651;28;20390;-70
2021/05/20 01:58:21;;;;;;;2.47;0.50;;;9.20;98.50;;;;;;5037076;28;20053;-69
2021/05/20 02:00:47;;;;;;;2.83;1.00;;;9.20;99.30;;;;;;5045161;28;20029;-69
2021/05/20 02:03:13;;;;;;;3.42;0.80;;;9.10;99.70;;;;;;5035618;28;20028;-70
2021/05/20 02:05:38;;;;;;;3.53;0.68;;;9.00;99.90;;;;;;5050571;28;20100;-69
2021/05/20 02:08:04;;;;;;;2.83;0.80;;;9.00;99.90;;;;;;5034644;28;20121;-69
2021/05/20 02:10:30;;;;;;;0.88;0.60;;;9.00;99.90;;;;;;5026559;28;20376;-69
2021/05/20 02:12:56;;;;;;;1.08;0.70;;;9.00;99.90;;;;;;5053682;28;20526;-69
2021/05/20 02:15:22;;;;;;;0.73;0.68;;;9.00;99.90;;;;;;5049472;28;20040;-69
2021/05/20 02:17:48;;;;;;;1.27;0.60;;;9.00;99.90;;;;;;5048206;28;20108;-69
2021/05/20 02:20:14;;;;;;;1.13;0.60;;;9.00;99.90;;;;;;5033335;28;20113;-70
2021/05/20 02:22:40;;;;;;;0.90;0.50;;;8.90;99.90;;;;;;5021427;28;20030;-69
2021/05/20 02:25:06;;;;;;;1.45;0.70;;;8.90;99.90;;;;;;5043715;28;20036;-69
2021/05/20 02:27:32;;;;;;;2.65;0.73;;;8.90;99.90;;;;;;5047117;28;20064;-69
2021/05/20 02:29:57;;;;;;;4.88;0.73;;;8.90;99.90;;;;;;5044473;28;20459;-69
2021/05/20 02:32:23;;;;;;;3.40;0.60;;;8.90;99.90;;;;;;5040777;28;20037;-69
2021/05/20 02:34:49;;;;;;;0.50;0.50;;;8.90;99.90;;;;;;5023580;28;20025;-69
2021/05/20 02:37:14;;;;;;;2.80;0.50;;;8.90;99.90;;;;;;5052085;28;20037;-69
2021/05/20 02:39:40;;;;;;;2.50;0.90;;;8.90;99.90;;;;;;5031616;28;20029;-69
2021/05/20 02:42:06;;;;;;;0.88;0.80;;;8.90;99.90;;;;;;5033491;28;20455;-69
2021/05/20 02:44:32;;;;;;;0.68;0.68;;;8.90;99.90;;;;;;5015953;28;20038;-69
2021/05/20 02:46:58;;;;;;;1.52;0.50;;;8.90;99.90;;;;;;5033381;28;20024;-69
2021/05/20 02:49:23;;;;;;;2.33;1.27;;;8.90;99.90;;;;;;5045101;28;20090;-69
2021/05/20 02:51:49;;;;;;;2.08;0.65;;;8.90;99.90;;;;;;5047828;28;20777;-69
2021/05/20 02:54:14;;;;;;;1.20;0.70;;;8.90;99.90;;;;;;5047635;28;20033;-69
2021/05/20 02:56:40;;;;;;;0.82;0.57;;;8.80;99.90;;;;;;5050369;28;20498;-69
2021/05/20 02:59:08;;;;;;;1.88;0.50;;;8.90;99.90;;;;;;5040808;28;20038;-69
2021/05/20 03:01:40;;;;;;;1.67;0.80;;;8.90;99.90;;;;;;5037091;28;20027;-69
2021/05/20 03:04:05;;;;;;;3.08;1.02;;;8.90;99.90;;;;;;5041938;28;20053;-69
2021/05/20 03:06:31;;;;;;;2.00;0.60;;;8.90;99.90;;;;;;5044629;28;20144;-69
2021/05/20 03:08:57;;;;;;;2.22;0.70;;;8.90;99.90;;;;;;5032576;28;20041;-69
2021/05/20 03:11:26;;;;;;;1.83;0.50;;;8.90;99.90;;;;;;5040629;28;20467;-69
2021/05/20 03:13:51;;;;;;;2.63;0.90;;;8.90;99.90;;;;;;5042116;28;20028;-70
2021/05/20 03:16:17;;;;;;;2.15;0.73;;;8.90;99.90;;;;;;5038617;28;20056;-69
2021/05/20 03:18:42;;;;;;;1.13;1.02;;;8.90;99.90;;;;;;5052017;28;20448;-69
2021/05/20 03:21:08;;;;;;;2.17;0.47;;;8.90;99.90;;;;;;5051101;28;20074;-69
2021/05/20 03:23:34;;;;;;;3.53;0.90;;;8.90;99.90;;;;;;5047921;28;20029;-70
2021/05/20 03:25:59;;;;;;;3.28;0.80;;;8.90;99.90;;;;;;5049425;28;20378;-71
2021/05/20 03:28:25;;;;;;;0.57;0.57;;;8.90;99.90;;;;;;5050193;28;20025;-70
2021/05/20 03:30:50;;;;;;;1.38;0.73;;;8.80;99.90;;;;;;5045522;28;20490;-69
2021/05/20 03:33:16;;;;;;;2.38;0.65;;;8.80;99.90;;;;;;5020377;28;20117;-70
2021/05/20 03:35:43;;;;;;;1.23;0.60;;;8.80;99.90;;;;;;5046043;28;20021;-70
2021/05/20 03:38:08;;;;;;;1.20;0.70;;;8.90;99.90;;;;;;5043925;28;20039;-69
2021/05/20 03:40:34;;;;;;;2.25;0.70;;;8.90;99.90;;;;;;5042221;28;20413;-69
2021/05/20 03:42:59;;;;;;;1.58;0.60;;;8.90;99.90;;;;;;5050597;28;20098;-70
2021/05/20 03:45:25;;;;;;;1.50;0.80;;;8.80;99.90;;;;;;5047744;28;20484;-69
2021/05/20 03:47:51;;;;;;;1.98;0.70;;;8.80;99.90;;;;;;5051941;28;20111;-69
2021/05/20 03:50:16;;;;;;;1.17;0.57;;;8.80;99.90;;;;;;5040096;28;20025;-69
2021/05/20 03:52:42;;;;;;;1.30;0.77;;;8.80;99.90;;;;;;5035489;28;20032;-69
2021/05/20 03:55:08;;;;;;;1.25;0.65;;;8.80;99.90;;;;;;5042291;28;20029;-69
2021/05/20 03:57:34;;;;;;;3.25;0.70;;;8.80;99.90;;;;;;5038386;28;20501;-69
2021/05/20 04:00:00;;;;;;;1.75;0.70;;;8.80;99.90;;;;;;5032070;28;20025;-69
2021/05/20 04:02:25;;;;;;;2.55;0.80;;;8.70;99.90;;;;;;5025923;28;20029;-69
2021/05/20 04:04:51;;;;;;;4.05;0.93;;;8.70;99.90;;;;;;5047853;28;20510;-69
2021/05/20 04:07:16;;;;;;;1.08;0.60;;;8.70;99.90;;;;;;5042045;28;20089;-69
2021/05/20 04:09:42;;;;;;;1.02;0.60;;;8.70;99.90;;;;;;5032100;28;20048;-69
2021/05/20 04:12:08;;;;;;;0.75;0.60;;;8.70;99.90;;;;;;5041669;28;20382;-69
2021/05/20 04:14:34;;;;;;;1.27;0.75;;;8.70;99.90;;;;;;5046292;28;20128;-70
2021/05/20 04:17:00;;;;;;;1.98;0.70;;;8.70;99.90;;;;;;5046013;28;20032;-69
2021/05/20 04:19:25;;;;;;;1.83;1.35;;;8.70;99.90;;;;;;5045079;28;20022;-70
2021/05/20 04:21:51;;;;;;;1.67;0.55;;;8.80;99.90;;;;;;5038478;28;20029;-70
2021/05/20 04:24:16;;;;;;;0.80;0.60;;;8.80;99.90;;;;;;5034305;28;20029;-70
2021/05/20 04:26:42;;;;;;;1.60;0.60;;;8.80;99.90;;;;;;5040117;28;20107;-69
2021/05/20 04:29:09;;;;;;;1.17;0.65;;;8.90;99.90;;;;;;5040073;28;20033;-69
2021/05/20 04:31:35;;;;;;;1.27;0.70;;;8.90;99.90;;;;;;5044486;28;20074;-69
2021/05/20 04:34:01;;;;;;;1.85;1.30;;;9.00;99.90;;;;;;5031700;28;20485;-70
2021/05/20 04:36:27;;;;;;;2.10;0.75;;;9.10;99.90;;;;;;5049124;28;20033;-70
2021/05/20 04:38:52;;;;;;;1.23;0.60;;;9.10;99.90;;;;;;5046608;28;20029;-69
2021/05/20 04:41:18;;;;;;;0.57;0.38;;;9.20;99.90;;;;;;5038618;28;20032;-69
2021/05/20 04:43:43;;;;;;;2.30;0.60;;;9.20;99.90;;;;;;5051090;28;20033;-70
2021/05/20 04:46:09;;;;;;;1.10;0.40;;;9.40;99.90;;;;;;5046846;28;20059;-69
2021/05/20 04:48:35;;;;;;;1.77;0.68;;;9.60;99.90;;;;;;5033234;28;20809;-70
2021/05/20 04:51:01;;;;;;;1.85;0.50;;;9.80;99.90;;;;;;5037798;28;20033;-69
2021/05/20 04:53:27;;;;;;;1.33;0.40;;;10.00;99.00;;;;;;5035366;28;20029;-69
2021/05/20 04:55:52;;;;;;;1.30;0.55;;;10.30;96.90;;;;;;5046105;28;20106;-69
2021/05/20 04:58:18;;;;;;;0.40;0.30;;;10.50;96.20;;;;;;5033562;28;20067;-70
2021/05/20 05:00:44;;;;;;;2.78;0.70;;;10.60;95.70;;;;;;5036883;28;20028;-69
2021/05/20 05:03:10;;;;;;;1.20;0.57;;;10.60;95.00;;;;;;5041548;28;20750;-69
2021/05/20 05:05:35;;;;;;;1.17;0.40;;;10.70;95.40;;;;;;5043960;28;20045;-69
2021/05/20 05:08:01;;;;;;;1.15;0.40;;;10.80;95.70;;;;;;5050603;28;20033;-69
2021/05/20 05:10:27;;;;;;;0.63;0.52;;;10.90;95.00;;;;;;5040288;28;20041;-70
2021/05/20 05:12:52;;;;;;;0.52;0.40;;;11.00;94.70;;;;;;5047611;28;20715;-71
2021/05/20 05:15:18;;;;;;;2.67;0.52;;;11.10;93.90;;;;;;5051661;28;20155;-69
2021/05/20 05:17:44;;;;;;;0.93;0.60;;;11.10;94.00;;;;;;5038068;28;20048;-70
2021/05/20 05:20:10;;;;;;;0.93;0.50;;;11.20;93.10;;;;;;5035988;28;20070;-69
2021/05/20 05:22:36;;;;;;;1.95;0.70;;;11.10;92.70;;;;;;5031112;28;20033;-69
2021/05/20 05:25:02;;;;;;;3.65;0.57;;;11.00;92.90;;;;;;5053048;28;20033;-69
2021/05/20 05:27:28;;;;;;;1.55;0.80;;;10.90;93.50;;;;;;5041323;28;20420;-69
2021/05/20 05:29:53;;;;;;;1.50;0.80;;;10.90;94.00;;;;;;5035008;28;20036;-69
2021/05/20 05:32:19;;;;;;;1.35;0.60;;;10.80;94.80;;;;;;5042514;28;20104;-69
2021/05/20 05:34:44;;;;;;;1.48;0.65;;;10.70;95.20;;;;;;5050878;28;20079;-69
2021/05/20 05:37:10;;;;;;;1.35;0.63;;;10.70;95.20;;;;;;5043452;28;20025;-69
2021/05/20 05:39:36;;;;;;;1.17;0.85;;;10.70;95.40;;;;;;5034559;28;20100;-69
2021/05/20 05:42:01;;;;;;;1.13;0.50;;;10.70;95.60;;;;;;5034422;28;20028;-69
2021/05/20 05:44:27;;;;;;;0.90;0.43;;;10.70;95.60;;;;;;5037573;28;20032;-69
2021/05/20 05:46:53;;;;;;;0.52;0.50;;;10.70;95.80;;;;;;5038431;28;20017;-70
2021/05/20 05:49:26;;;;;;;1.42;0.47;;;10.60;95.80;;;;;;5016205;28;20037;-70
2021/05/20 05:51:56;;;;;;;2.38;0.73;;;10.70;96.10;;;;;;5037677;28;20021;-69
2021/05/20 05:54:22;;;;;;;0.98;0.70;;;10.70;95.60;;;;;;5037773;28;20033;-69
2021/05/20 05:56:48;;;;;;;2.60;0.50;;;10.80;95.30;;;;;;5045918;28;20470;-70
2021/05/20 05:59:14;;;;;;;0.82;0.70;;;10.70;95.40;;;;;;5034605;28;20030;-69
2021/05/20 06:01:39;;;;;;;1.08;0.85;;;10.80;95.80;;;;;;5052391;28;20044;-72
2021/05/20 06:04:08;;;;;;;1.55;0.82;;;10.80;95.60;;;;;;5050970;28;20477;-74
2021/05/20 06:06:34;;;;;;;1.75;0.73;;;10.90;95.70;;;;;;5043270;28;20025;-71
2021/05/20 06:08:59;;;;;;;1.23;0.82;;;11.00;95.20;;;;;;5034164;28;20082;-72
2021/05/20 06:11:34;;;;;;;1.17;0.77;;;11.10;94.30;;;;;;5043752;28;20029;-72
2021/05/20 06:14:05;;;;;;;2.60;0.57;;;11.30;94.40;;;;;;5052538;28;20076;-71
2021/05/20 06:16:34;;;;;;;2.28;0.52;;;11.40;93.40;;;;;;5045166;28;20032;-72
2021/05/20 06:19:00;;;;;;;0.57;0.55;;;11.50;92.80;;;;;;5034102;28;20044;-72
2021/05/20 06:21:25;;;;;;;5.40;0.90;;;11.60;92.30;;;;;;5033545;28;20029;-72
2021/05/20 06:23:52;;;;;;;1.15;0.90;;;11.60;91.40;;;;;;5035533;28;20021;-74
2021/05/20 06:26:18;;;;;;;1.20;0.70;;;11.60;91.90;;;;;;5041054;28;20025;-77
2021/05/20 06:28:43;;;;;;;1.38;0.70;;;11.60;91.60;;;;;;5053432;28;20036;-75
2021/05/20 06:31:09;;;;;;;0.90;0.82;;;11.60;90.00;;;;;;5040673;28;20064;-73
2021/05/20 06:33:37;;;;;;;0.90;0.60;;;11.60;90.00;;;;;;5047425;28;20063;-74
2021/05/20 06:36:06;;;;;;;2.22;0.50;;;11.60;90.10;;;;;;5045200;28;20032;-74
2021/05/20 06:38:32;;;;;;;0.85;0.70;;;11.60;90.40;;;;;;5052940;28;20370;-73
2021/05/20 06:41:00;;;;;;;0.45;0.45;;;11.60;90.40;;;;;;5053115;28;20090;-75
2021/05/20 06:43:26;;;;;;;0.80;0.50;;;11.60;90.00;;;;;;5052988;28;20450;-73
2021/05/20 06:45:52;;;;;;;2.17;0.70;;;11.50;90.70;;;;;;5038140;28;20029;-72
2021/05/20 06:48:17;;;;;;;1.33;0.50;;;11.50;90.80;;;;;;5051166;28;20033;-76
2021/05/20 06:50:44;;;;;;;1.85;0.65;;;11.50;91.10;;;;;;5045589;28;20033;-73
2021/05/20 06:53:10;;;;;;;1.50;0.60;;;11.50;91.40;;;;;;5021027;28;20461;-72
2021/05/20 06:55:36;;;;;;;1.13;0.43;;;11.50;91.30;;;;;;5044186;28;20328;-73
2021/05/20 07:00:29;;;;;;;1.15;0.60;;;12.20;90.00;;;;;;5040561;28;20030;-72
2021/05/20 07:02:54;;;;;;;1.05;0.60;;;12.60;86.80;;;;;;5039986;28;20045;-74
2021/05/20 07:05:21;;;;;;;1.25;0.80;;;13.00;83.30;;;;;;5040933;28;20036;-79
2021/05/20 07:07:47;;;;;;;2.92;0.65;;;13.30;78.20;;;;;;5046709;28;20025;-72
2021/05/20 07:10:12;;;;;;;1.33;0.70;;;13.40;77.90;;;;;;5050734;28;20040;-72
2021/05/20 07:12:38;;;;;;;0.50;0.30;;;13.50;76.40;;;;;;5050332;28;20246;-72
2021/05/20 07:15:05;;;;;;;3.70;0.60;;;13.60;77.00;;;;;;5043598;28;20103;-74
2021/05/20 07:17:31;;;;;;;1.65;0.60;;;13.90;75.60;;;;;;5032312;28;20035;-72
2021/05/20 07:19:56;;;;;;;3.75;0.82;;;14.00;75.30;;;;;;5039097;28;20113;-74
2021/05/20 07:22:22;;;;;;;2.42;0.88;;;14.00;74.90;;;;;;5041747;28;20375;-72
2021/05/20 07:24:48;;;;;;;1.95;0.70;;;13.90;75.40;;;;;;5045009;28;20033;-69
2021/05/20 07:27:14;;;;;;;0.82;0.65;;;13.60;76.50;;;;;;5032597;28;20036;-69
2021/05/20 07:29:40;;;;;;;0.82;0.52;;;13.50;78.00;;;;;;5043970;28;20029;-72
2021/05/20 07:32:07;;;;;;;0.68;0.60;;;13.30;80.70;;;;;;5040020;28;20037;-71
2021/05/20 07:34:35;;;;;;;4.60;0.70;;;13.30;83.00;;;;;;5033687;28;20466;-73
2021/05/20 07:37:01;;;;;;;0.80;0.80;;;13.20;79.10;;;;;;5040332;28;20033;-72
2021/05/20 07:39:27;;;;;;;0.52;0.52;;;13.30;78.50;;;;;;5031669;28;20090;-73
2021/05/20 07:41:53;;;;;;;0.50;0.50;;;13.30;78.10;;;;;;5037244;28;20082;-70
2021/05/20 07:44:18;;;;;;;0.82;0.52;;;13.40;77.80;;;;;;5043872;28;20029;-70
2021/05/20 07:46:44;;;;;;;1.95;0.63;;;13.50;77.90;;;;;;5051904;28;20159;-72
2021/05/20 07:49:10;;;;;;;2.15;0.55;;;13.70;76.30;;;;;;5049787;28;20078;-70
2021/05/20 07:51:36;;;;;;;3.70;1.13;;;13.90;74.80;;;;;;5042534;28;20099;-72
2021/05/20 07:54:03;;;;;;;1.10;0.70;;;14.00;73.20;;;;;;5041912;28;20504;-72
2021/05/20 07:56:28;;;;;;;1.42;0.60;;;14.10;72.60;;;;;;5051109;28;20086;-72
2021/05/20 07:58:54;;;;;;;3.75;0.50;;;14.10;71.70;;;;;;5036642;28;20065;-71
2021/05/20 08:01:21;;;;;;;4.70;0.80;;;14.00;71.60;;;;;;5036321;28;20029;-71
2021/05/20 08:03:50;;;;;;;1.08;0.57;;;14.00;72.30;;;;;;5032253;28;20068;-71
2021/05/20 08:09:48;;;;;;;2.17;0.65;;;13.90;73.20;;;;;;5031998;28;20389;-74
2021/05/20 08:11:50;;;;;;;2.22;0.80;;;13.80;73.30;;;;;;5030260;28;20466;-73
2021/05/20 08:14:16;;;;;;;83.57;42.95;;;13.80;72.50;;;;;;5050001;28;20040;-73
2021/05/20 08:16:42;;;;;;;6.75;4.03;;;13.80;72.40;;;;;;5055585;28;20025;-75
2021/05/20 08:19:08;;;;;;;2.65;1.48;;;13.70;71.80;;;;;;5047796;28;20140;-74
2021/05/20 08:21:34;;;;;;;2.95;0.75;;;13.60;72.20;;;;;;5044110;28;20021;-71
2021/05/20 08:24:00;;;;;;;2.15;0.70;;;13.60;72.10;;;;;;5045547;28;20029;-71
2021/05/20 08:26:27;;;;;;;3.00;0.80;;;13.60;72.00;;;;;;5034889;28;20028;-71
2021/05/20 08:28:53;;;;;;;1.17;0.60;;;13.70;72.00;;;;;;5039968;28;20082;-72
2021/05/20 08:31:19;;;;;;;1.58;0.60;;;13.80;72.70;;;;;;5045614;28;20048;-71
2021/05/20 08:33:44;;;;;;;1.73;0.73;;;13.80;72.20;;;;;;5046496;28;20466;-68
2021/05/20 08:36:11;;;;;;;2.30;0.50;;;13.90;71.80;;;;;;5036740;28;20448;-72
2021/05/20 08:38:37;;;;;;;0.90;0.43;;;14.00;70.80;;;;;;5033225;28;20040;-69
2021/05/20 08:41:02;;;;;;;1.95;0.40;;;14.00;71.00;;;;;;5044652;28;20505;-69
2021/05/20 08:43:28;;;;;;;1.85;0.75;;;14.10;69.30;;;;;;5030771;28;20025;-69
2021/05/20 08:45:54;;;;;;;2.00;0.47;;;14.30;70.90;;;;;;5045068;28;20029;-70
2021/05/20 08:48:20;;;;;;;3.78;0.63;;;14.50;70.50;;;;;;5019186;28;20025;-68
2021/05/20 08:50:45;;;;;;;2.83;0.73;;;14.60;69.80;;;;;;5034196;28;20037;-68
2021/05/20 08:53:13;;;;;;;4.22;0.60;;;14.70;70.10;;;;;;5036155;28;20053;-71
2021/05/20 08:55:39;;;;;;;1.00;0.60;;;14.80;69.50;;;;;;5046120;28;20025;-75
2021/05/20 08:58:09;;;;;;;1.77;0.60;;;14.90;69.00;;;;;;5014571;28;20069;-73
2021/05/20 09:00:35;;;;;;;2.20;1.00;;;14.80;68.50;;;;;;5038753;28;20049;-72
2021/05/20 09:03:09;;;;;;;2.55;0.80;;;14.90;68.30;;;;;;5049409;28;20476;-72
2021/05/20 09:05:35;;;;;;;0.70;0.50;;;15.00;66.80;;;;;;5042391;28;20107;-72
2021/05/20 09:08:04;;;;;;;11.23;1.13;;;15.20;67.10;;;;;;5049247;28;20458;-71
2021/05/20 09:10:31;;;;;;;1.80;0.60;;;15.30;66.60;;;;;;5049324;28;20025;-73
2021/05/20 09:13:03;;;;;;;2.42;0.50;;;15.50;65.30;;;;;;5037942;28;20029;-72
2021/05/20 09:15:44;;;;;;;2.50;0.30;;;15.60;63.10;;;;;;5041680;28;20032;-72
2021/05/20 09:18:10;;;;;;;;;;;15.60;64.40;;;;;;5025034;28;20029;-70
2021/05/20 09:20:40;;;;;;;0.82;0.38;;;15.70;63.50;;;;;;5044341;28;19908;-71
2021/05/20 09:23:10;;;;;;;1.15;0.45;;;15.90;63.10;;;;;;5041790;28;20112;-71
2021/05/20 09:25:36;;;;;;;0.63;0.40;;;16.10;62.60;;;;;;5042001;28;20033;-71
2021/05/20 09:28:04;;;;;;;3.63;0.57;;;16.10;62.80;;;;;;5042238;28;20470;-71
2021/05/20 09:30:31;;;;;;;0.47;0.40;;;16.00;62.10;;;;;;5041964;28;20033;-70
2021/05/20 09:33:09;;;;;;;1.15;0.35;;;15.90;60.80;;;;;;5050356;28;20041;-71
2021/05/20 09:35:42;;;;;;;2.38;0.80;;;15.60;61.60;;;;;;5047786;28;20032;-72
2021/05/20 09:38:19;;;;;;;3.60;0.57;;;15.40;62.40;;;;;;5049666;28;20037;-71
2021/05/20 09:40:56;;;;;;;4.13;0.80;;;15.30;63.90;;;;;;5042712;28;20016;-75
2021/05/20 09:43:33;;;;;;;1.05;0.65;;;15.10;64.60;;;;;;5039906;28;20053;-70
2021/05/20 09:46:03;;;;;;;2.25;0.50;;;15.00;65.90;;;;;;5034566;28;20100;-69
2021/05/20 09:48:46;;;;;;;4.72;0.50;;;14.80;64.80;;;;;;5045378;28;20462;-70
2021/05/20 09:51:22;;;;;;;0.60;0.50;;;14.70;65.70;;;;;;5039833;28;20033;-70
2021/05/20 09:53:52;;;;;;;0.20;0.20;;;14.70;66.30;;;;;;5042683;28;20035;-70
2021/05/20 09:56:34;;;;;;;;;;;14.70;66.80;;;;;;5024620;28;20097;-69
2021/05/20 09:59:00;;;;;;;1.45;0.60;;;14.70;66.00;;;;;;5046781;28;19913;-71
2021/05/20 10:01:25;;;;;;;5.60;0.60;;;14.70;65.90;;;;;;5052451;28;20032;-71
2021/05/20 10:03:57;;;;;;;1.42;0.40;;;14.70;65.40;;;;;;5053429;28;20025;-70
2021/05/20 10:06:44;;;;;;;1.58;0.38;;;14.80;65.40;;;;;;5048389;28;20049;-72
2021/05/20 10:09:12;;;;;;;0.77;0.40;;;15.00;64.40;;;;;;5023637;28;20029;-73
2021/05/20 10:11:41;;;;;;;0.95;0.32;;;15.20;62.30;;;;;;5051952;28;20106;-72
2021/05/20 10:14:07;;;;;;;0.45;0.45;;;15.20;63.20;;;;;;5040145;28;20036;-72
2021/05/20 10:16:34;;;;;;;1.40;0.40;;;15.20;61.60;;;;;;5045226;28;20486;-72
2021/05/20 10:19:01;;;;;;;0.28;0.28;;;15.30;62.00;;;;;;5042104;28;20162;-72
2021/05/20 10:21:30;;;;;;;3.40;0.38;;;15.50;61.90;;;;;;5050635;28;20036;-76
2021/05/20 10:23:57;;;;;;;2.47;0.50;;;15.70;60.90;;;;;;5036554;28;20032;-75
2021/05/20 10:26:22;;;;;;;0.32;0.30;;;16.00;62.90;;;;;;5039561;28;20478;-72
2021/05/20 10:28:48;;;;;;;1.08;0.50;;;16.30;61.30;;;;;;5043698;28;20060;-70
2021/05/20 10:31:15;;;;;;;2.40;0.40;;;16.70;59.60;;;;;;5048856;28;20355;-68
2021/05/20 10:33:43;;;;;;;2.53;0.50;;;17.00;59.80;;;;;;5033643;28;20032;-70
2021/05/20 10:36:23;;;;;;;3.22;0.50;;;17.50;57.30;;;;;;5032929;28;20029;-85
2021/05/20 10:38:48;;;;;;;1.17;0.60;;;17.90;53.80;;;;;;5025318;28;20033;-78
2021/05/20 10:41:18;;;;;;;0.40;0.40;;;17.80;53.80;;;;;;5024448;28;20612;-75
2021/05/20 10:43:46;;;;;;;2.40;0.30;;;17.80;52.80;;;;;;5028949;28;20124;-76
2021/05/20 10:46:18;;;;;;;2.42;0.30;;;17.50;50.70;;;;;;5042923;28;20095;-72
2021/05/20 10:48:56;;;;;;;2.53;0.50;;;17.40;51.90;;;;;;5034855;28;20080;-71
2021/05/20 10:51:26;;;;;;;1.95;0.55;;;17.60;54.70;;;;;;5040513;28;20498;-71
2021/05/20 10:54:01;;;;;;;0.93;0.25;;;17.90;52.10;;;;;;5034086;28;20025;-70
2021/05/20 10:56:26;;;;;;;0.52;0.25;;;18.00;50.80;;;;;;5040953;28;20447;-67
2021/05/20 10:58:53;;;;;;;0.95;0.35;;;18.00;50.80;;;;;;5052351;28;20055;-69
2021/05/20 11:01:21;;;;;;;0.20;0.20;;;17.90;52.00;;;;;;5052583;28;20488;-69
2021/05/20 11:03:54;;;;;;;1.67;0.43;;;17.90;52.60;;;;;;5033990;28;20048;-72
2021/05/20 11:06:24;;;;;;;0.35;0.28;;;17.70;50.50;;;;;;5042615;28;20470;-72
2021/05/20 11:08:51;;;;;;;;;;;17.40;50.60;;;;;;5035032;28;20045;-72
2021/05/20 11:11:24;;;;;;;1.52;0.40;;;17.20;51.20;;;;;;5035892;28;20000;-71
2021/05/20 11:13:50;;;;;;;3.88;0.50;;;17.00;52.50;;;;;;5051613;28;20029;-71
2021/05/20 11:16:27;;;;;;;0.38;0.20;;;16.90;54.00;;;;;;5045293;28;20094;-72
2021/05/20 11:18:53;;;;;;;0.65;0.38;;;16.70;54.80;;;;;;5053927;28;20060;-75
2021/05/20 11:21:20;;;;;;;0.30;0.30;;;16.50;55.70;;;;;;5046248;28;20418;-74
2021/05/20 11:23:45;;;;;;;0.82;0.32;;;16.30;56.80;;;;;;5040026;28;20163;-70
2021/05/20 11:26:20;;;;;;;2.08;0.43;;;16.20;56.90;;;;;;5047335;28;20457;-71
2021/05/20 11:28:58;;;;;;;1.45;0.38;;;16.00;57.50;;;;;;5043137;28;20065;-71
2021/05/20 11:31:26;;;;;;;1.20;0.30;;;15.90;57.70;;;;;;5043231;28;20022;-70
2021/05/20 11:34:14;;;;;;;1.88;0.52;;;16.00;58.20;;;;;;5031243;28;20115;-70
2021/05/20 11:36:42;;;;;;;0.30;0.30;;;15.90;56.80;;;;;;5034130;28;20025;-70
2021/05/20 11:39:14;;;;;;;0.68;0.30;;;16.00;57.80;;;;;;5046658;28;20031;-70
2021/05/20 11:41:42;;;;;;;1.75;0.40;;;16.00;57.10;;;;;;5051533;28;20319;-71
2021/05/20 11:44:11;;;;;;;0.50;0.30;;;16.10;57.30;;;;;;5015470;28;20032;-71
2021/05/20 11:46:39;;;;;;;4.55;0.43;;;16.10;56.40;;;;;;5034055;28;20142;-69
2021/05/20 11:49:21;;;;;;;1.60;0.28;;;16.10;57.30;;;;;;5047059;28;20033;-71
2021/05/20 11:51:49;;;;;;;0.30;0.20;;;16.10;56.70;;;;;;5041231;28;20021;-69
2021/05/20 11:54:16;;;;;;;2.28;0.45;;;16.20;57.00;;;;;;5046114;28;20602;-69
2021/05/20 11:56:53;;;;;;;0.65;0.40;;;16.30;56.40;;;;;;5041870;28;20128;-67
2021/05/20 11:59:38;;;;;;;1.95;0.30;;;16.60;55.50;;;;;;5032335;28;20112;-73
2021/05/20 12:02:08;;;;;;;1.58;0.40;;;17.00;55.30;;;;;;5048761;28;20474;-70
2021/05/20 12:04:34;;;;;;;0.75;0.30;;;17.30;53.50;;;;;;5034394;28;20028;-72
2021/05/20 12:07:01;;;;;;;2.00;0.50;;;17.60;53.20;;;;;;5041401;28;20074;-69
2021/05/20 12:09:28;;;;;;;0.70;0.20;;;17.90;51.40;;;;;;5046329;28;20520;-74
2021/05/20 12:11:54;;;;;;;0.10;0.10;;;18.50;48.50;;;;;;5031057;28;20025;-70
2021/05/20 12:14:31;;;;;;;4.53;0.40;;;18.90;48.60;;;;;;5043197;28;20032;-70
2021/05/20 12:17:09;;;;;;;2.67;0.40;;;19.20;47.40;;;;;;5033636;28;20108;-70
2021/05/20 12:19:41;;;;;;;0.57;0.30;;;19.60;44.90;;;;;;5034518;28;20383;-70
2021/05/20 12:22:12;;;;;;;0.52;0.22;;;20.20;43.90;;;;;;5029939;28;20372;-69
2021/05/20 12:24:41;;;;;;;0.57;0.20;;;21.00;41.80;;;;;;5043296;28;20016;-70
2021/05/20 12:27:14;;;;;;;0.82;0.30;;;21.10;40.60;;;;;;5050507;28;20033;-70
2021/05/20 12:29:43;;;;;;;0.20;0.20;;;21.00;40.60;;;;;;5044525;28;20041;-70
2021/05/20 12:32:29;;;;;;;0.93;0.22;;;20.60;42.40;;;;;;5023161;28;20033;-70
2021/05/20 12:35:13;;;;;;;0.30;0.30;;;20.20;43.30;;;;;;5039550;28;20160;-70
2021/05/20 12:37:46;;;;;;;0.20;0.20;;;19.70;43.00;;;;;;5030816;28;20155;-70
2021/05/20 12:40:30;;;;;;;0.68;0.20;;;19.40;43.60;;;;;;5032718;28;20383;-70
2021/05/20 12:43:07;;;;;;;0.70;0.30;;;19.10;44.10;;;;;;5031088;28;20067;-70
2021/05/20 12:45:36;;;;;;;1.25;0.40;;;18.70;45.30;;;;;;5042695;28;20486;-70
2021/05/20 12:48:02;;;;;;;0.30;0.30;;;18.40;46.30;;;;;;5042135;28;20068;-70
2021/05/20 12:50:30;;;;;;;0.63;0.35;;;18.20;47.20;;;;;;5031151;28;20462;-70
2021/05/20 12:52:59;;;;;;;3.53;0.40;;;17.90;49.30;;;;;;5031323;28;20036;-70
2021/05/20 12:55:40;;;;;;;0.20;0.20;;;17.70;50.00;;;;;;5038318;28;20501;-70
2021/05/20 12:58:07;;;;;;;0.32;0.10;;;17.60;50.30;;;;;;5038800;28;20501;-70
2021/05/20 13:00:55;;;;;;;1.92;0.32;;;17.50;50.10;;;;;;5041772;28;20037;-71